Time;durP1;ratioP1;P1;durP2;ratioP2;P2;SDS_P1;SDS_P2;PMS_P1;PMS_P2;Temp;Humidity;BMP_temperature;BMP_pressure;BME280_temperature;BME280_humidity;BME280_pressure;Samples;Min_cycle;Max_cycle;Signal;HPM_P1;HPM_P2
2022/04/10 00:00:44;;;;;;;0.55;0.55;;;;;;;;;;6260150;22;20015;-88
2022/04/10 00:03:11;;;;;;;0.40;0.40;;;;;;;;;;6259573;22;20457;-88
2022/04/10 00:05:37;;;;;;;0.50;0.43;;;;;;;;;;6258967;22;20019;-89
2022/04/10 00:08:04;;;;;;;0.47;0.47;;;;;;;;;;6259079;22;20007;-88
2022/04/10 00:10:30;;;;;;;0.40;0.40;;;;;;;;;;6259815;22;20051;-89
2022/04/10 00:12:56;;;;;;;0.82;0.50;;;;;;;;;;6284553;22;20011;-88
2022/04/10 00:15:22;;;;;;;0.40;0.40;;;;;;;;;;6258893;22;20015;-89
2022/04/10 00:17:48;;;;;;;0.40;0.40;;;;;;;;;;6258578;22;20437;-89
2022/04/10 00:20:14;;;;;;;0.40;0.40;;;;;;;;;;6259509;22;20015;-88
2022/04/10 00:22:44;;;;;;;0.82;0.82;;;;;;;;;;6258534;22;20459;-88
2022/04/10 00:25:11;;;;;;;7.60;0.95;;;;;;;;;;6258837;22;20064;-88
2022/04/10 00:27:40;;;;;;;8.10;0.60;;;;;;;;;;6259744;22;20047;-89
2022/04/10 00:30:06;;;;;;;0.40;0.40;;;;;;;;;;6259495;22;20392;-88
2022/04/10 00:32:32;;;;;;;0.40;0.40;;;;;;;;;;6258901;22;20007;-88
2022/04/10 00:34:58;;;;;;;0.40;0.40;;;;;;;;;;6259706;22;20474;-87
2022/04/10 00:37:24;;;;;;;0.57;0.57;;;;;;;;;;6259696;22;20090;-88
2022/04/10 00:39:50;;;;;;;0.50;0.47;;;;;;;;;;6259110;22;20022;-89
2022/04/10 00:42:16;;;;;;;3.22;0.63;;;;;;;;;;6260007;22;20021;-88
2022/04/10 00:44:42;;;;;;;0.30;0.30;;;;;;;;;;6259583;22;20015;-88
2022/04/10 00:47:10;;;;;;;1.67;1.25;;;;;;;;;;6258404;22;20353;-89
2022/04/10 00:49:36;;;;;;;0.47;0.45;;;;;;;;;;6259174;22;20031;-88
2022/04/10 00:52:03;;;;;;;6.13;1.35;;;;;;;;;;6259319;22;20043;-89
2022/04/10 00:54:30;;;;;;;1.00;0.90;;;;;;;;;;6259665;22;20391;-89
2022/04/10 00:56:57;;;;;;;8.48;1.35;;;;;;;;;;6259194;22;20022;-89
2022/04/10 00:59:23;;;;;;;2.33;1.55;;;;;;;;;;6259746;22;20015;-89
2022/04/10 01:01:49;;;;;;;0.60;0.60;;;;;;;;;;6259323;22;20019;-89
2022/04/10 01:04:16;;;;;;;0.40;0.40;;;;;;;;;;6259440;22;20022;-89
2022/04/10 01:06:43;;;;;;;0.22;0.22;;;;;;;;;;6259549;22;20015;-89
2022/04/10 01:09:09;;;;;;;2.08;1.90;;;;;;;;;;6258952;22;20011;-89
2022/04/10 01:11:36;;;;;;;1.20;0.50;;;;;;;;;;6259549;22;20015;-89
2022/04/10 01:14:04;;;;;;;0.57;0.57;;;;;;;;;;6259137;22;20007;-89
2022/04/10 01:16:31;;;;;;;9.15;1.13;;;;;;;;;;6260360;22;20509;-90
2022/04/10 01:18:58;;;;;;;0.50;0.50;;;;;;;;;;6259457;22;20019;-89
2022/04/10 01:21:28;;;;;;;1.17;1.08;;;;;;;;;;6259442;22;20015;-88
2022/04/10 01:23:58;;;;;;;0.40;0.40;;;;;;;;;;6259948;22;20205;-89
2022/04/10 01:26:24;;;;;;;2.33;0.85;;;;;;;;;;6259901;22;20367;-88
2022/04/10 01:28:57;;;;;;;0.40;0.40;;;;;;;;;;6259514;22;20011;-88
2022/04/10 01:31:23;;;;;;;0.40;0.40;;;;;;;;;;6259704;22;20015;-89
2022/04/10 01:33:50;;;;;;;0.40;0.40;;;;;;;;;;6259636;22;20026;-88
2022/04/10 01:36:18;;;;;;;0.40;0.40;;;;;;;;;;6260062;22;20018;-89
2022/04/10 01:38:45;;;;;;;0.40;0.40;;;;;;;;;;6259711;22;20047;-88
2022/04/10 01:41:14;;;;;;;2.28;0.70;;;;;;;;;;6259609;22;20015;-89
2022/04/10 01:43:47;;;;;;;0.68;0.68;;;;;;;;;;6258659;22;20015;-88
2022/04/10 01:46:15;;;;;;;0.40;0.40;;;;;;;;;;6259000;22;20341;-88
2022/04/10 01:48:42;;;;;;;0.30;0.30;;;;;;;;;;6284113;22;20035;-88
2022/04/10 01:51:08;;;;;;;0.50;0.50;;;;;;;;;;6260812;22;20449;-89
2022/04/10 01:53:34;;;;;;;0.35;0.35;;;;;;;;;;6261498;22;20518;-89
2022/04/10 01:56:01;;;;;;;0.40;0.40;;;;;;;;;;6261374;22;20019;-89
2022/04/10 01:58:27;;;;;;;0.38;0.38;;;;;;;;;;6261138;22;20076;-89
2022/04/10 02:00:53;;;;;;;0.70;0.70;;;;;;;;;;6261656;22;20019;-88
2022/04/10 02:03:19;;;;;;;0.40;0.40;;;;;;;;;;6260901;22;20026;-89
2022/04/10 02:05:45;;;;;;;1.73;1.00;;;;;;;;;;6261256;22;20020;-90
2022/04/10 02:08:13;;;;;;;0.40;0.40;;;;;;;;;;6261677;22;20460;-89
2022/04/10 02:10:39;;;;;;;1.95;1.02;;;;;;;;;;6261556;22;20026;-87
2022/04/10 02:13:05;;;;;;;0.82;0.50;;;;;;;;;;6261258;22;20018;-89
2022/04/10 02:15:31;;;;;;;1.95;0.95;;;;;;;;;;6262091;22;20080;-90
2022/04/10 02:17:57;;;;;;;4.13;1.65;;;;;;;;;;6262599;22;20015;-88
2022/04/10 02:20:24;;;;;;;1.35;0.60;;;;;;;;;;6262011;22;20079;-88
2022/04/10 02:22:53;;;;;;;1.20;0.50;;;;;;;;;;6262239;22;20011;-88
2022/04/10 02:25:19;;;;;;;0.60;0.40;;;;;;;;;;6262746;22;20062;-89
2022/04/10 02:27:45;;;;;;;1.00;0.47;;;;;;;;;;6262779;22;20011;-89
2022/04/10 02:30:12;;;;;;;0.50;0.50;;;;;;;;;;6262362;22;20022;-89
2022/04/10 02:32:39;;;;;;;0.60;0.50;;;;;;;;;;6261587;22;20019;-88
2022/04/10 02:35:06;;;;;;;0.98;0.98;;;;;;;;;;6261837;22;20021;-89
2022/04/10 02:37:32;;;;;;;0.35;0.35;;;;;;;;;;6260999;22;20042;-90
2022/04/10 02:39:58;;;;;;;0.43;0.43;;;;;;;;;;6260830;22;20011;-89
2022/04/10 02:42:24;;;;;;;0.50;0.50;;;;;;;;;;6260855;22;20094;-89
2022/04/10 02:44:50;;;;;;;0.30;0.30;;;;;;;;;;6261223;22;20011;-87
2022/04/10 02:47:16;;;;;;;11.15;1.33;;;;;;;;;;6260775;22;20019;-88
2022/04/10 02:49:41;;;;;;;0.38;0.38;;;;;;;;;;6286563;22;20403;-88
2022/04/10 02:52:08;;;;;;;0.40;0.40;;;;;;;;;;6260751;22;20015;-88
2022/04/10 02:54:34;;;;;;;0.73;0.73;;;;;;;;;;6261235;22;20017;-88
2022/04/10 02:57:00;;;;;;;2.65;0.45;;;;;;;;;;6261290;22;20061;-89
2022/04/10 02:59:26;;;;;;;13.35;1.30;;;;;;;;;;6260665;22;20015;-88
2022/04/10 03:01:52;;;;;;;8.90;0.85;;;;;;;;;;6260838;22;20016;-87
2022/04/10 03:04:18;;;;;;;0.30;0.30;;;;;;;;;;6260959;22;20062;-87
2022/04/10 03:06:44;;;;;;;2.38;0.75;;;;;;;;;;6261600;22;20016;-89
2022/04/10 03:09:10;;;;;;;2.40;0.80;;;;;;;;;;6261253;22;20524;-89
2022/04/10 03:11:36;;;;;;;0.95;0.70;;;;;;;;;;6261617;22;20120;-88
2022/04/10 03:14:03;;;;;;;0.73;0.73;;;;;;;;;;6260632;22;20011;-89
2022/04/10 03:16:29;;;;;;;0.70;0.70;;;;;;;;;;6260905;22;20087;-89
2022/04/10 03:18:55;;;;;;;2.35;1.00;;;;;;;;;;6286595;22;20022;-89
2022/04/10 03:21:21;;;;;;;0.65;0.65;;;;;;;;;;6261483;22;20090;-90
2022/04/10 03:23:47;;;;;;;3.50;1.65;;;;;;;;;;6261452;22;20018;-88
2022/04/10 03:26:13;;;;;;;1.48;1.25;;;;;;;;;;6261056;22;20020;-88
2022/04/10 03:28:39;;;;;;;0.60;0.60;;;;;;;;;;6260804;22;20072;-87
2022/04/10 03:31:05;;;;;;;0.47;0.38;;;;;;;;;;6260096;22;20011;-88
2022/04/10 03:33:31;;;;;;;0.30;0.30;;;;;;;;;;6259400;22;20007;-87
2022/04/10 03:35:58;;;;;;;4.15;3.80;;;;;;;;;;6260217;22;20019;-89
2022/04/10 03:38:24;;;;;;;0.50;0.50;;;;;;;;;;6260084;22;20015;-89
2022/04/10 03:40:50;;;;;;;0.30;0.30;;;;;;;;;;6260489;22;20054;-88
2022/04/10 03:43:16;;;;;;;0.40;0.40;;;;;;;;;;6260332;22;20106;-89
2022/04/10 03:45:42;;;;;;;2.28;0.47;;;;;;;;;;6259707;22;20345;-89
2022/04/10 03:48:09;;;;;;;6.28;5.68;;;;;;;;;;6260491;22;20166;-89
2022/04/10 03:50:35;;;;;;;0.50;0.45;;;;;;;;;;6260313;22;20015;-89
2022/04/10 03:53:02;;;;;;;0.68;0.68;;;;;;;;;;6260158;22;20341;-88
2022/04/10 03:55:28;;;;;;;1.05;0.50;;;;;;;;;;6259872;22;20114;-87
2022/04/10 03:57:54;;;;;;;1.60;0.90;;;;;;;;;;6258884;22;20038;-87
2022/04/10 04:00:20;;;;;;;3.67;1.15;;;;;;;;;;6259333;22;20020;-88
2022/04/10 04:02:46;;;;;;;0.55;0.55;;;;;;;;;;6258978;22;20461;-90
2022/04/10 04:05:13;;;;;;;2.05;0.85;;;;;;;;;;6259077;22;20019;-88
2022/04/10 04:07:39;;;;;;;4.35;1.20;;;;;;;;;;6259581;22;20038;-88
2022/04/10 04:10:07;;;;;;;1.73;0.70;;;;;;;;;;6285231;22;20007;-89
2022/04/10 04:12:37;;;;;;;0.50;0.50;;;;;;;;;;6259392;22;20502;-88
2022/04/10 04:15:03;;;;;;;2.97;0.52;;;;;;;;;;6259733;22;20030;-88
2022/04/10 04:17:29;;;;;;;0.93;0.50;;;;;;;;;;6259583;22;20472;-88
2022/04/10 04:19:55;;;;;;;0.40;0.40;;;;;;;;;;6285267;22;20050;-88
2022/04/10 04:22:21;;;;;;;0.45;0.45;;;;;;;;;;6259982;22;20026;-88
2022/04/10 04:24:47;;;;;;;0.40;0.40;;;;;;;;;;6285254;22;20015;-89
2022/04/10 04:27:14;;;;;;;0.85;0.43;;;;;;;;;;6259940;22;20069;-88
2022/04/10 04:29:40;;;;;;;3.22;1.30;;;;;;;;;;6259887;22;20391;-88
2022/04/10 04:32:06;;;;;;;0.50;0.50;;;;;;;;;;6258462;22;20042;-89
2022/04/10 04:34:32;;;;;;;1.42;0.80;;;;;;;;;;6259899;22;20015;-89
2022/04/10 04:36:58;;;;;;;1.95;0.95;;;;;;;;;;6260354;22;20015;-90
2022/04/10 04:39:24;;;;;;;1.60;1.13;;;;;;;;;;6260143;22;20022;-87
2022/04/10 04:41:50;;;;;;;2.22;1.08;;;;;;;;;;6234438;22;20011;-88
2022/04/10 04:44:16;;;;;;;2.35;1.10;;;;;;;;;;6260723;22;20027;-89
2022/04/10 04:46:42;;;;;;;2.58;0.95;;;;;;;;;;6260892;22;20012;-89
2022/04/10 04:49:10;;;;;;;0.75;0.52;;;;;;;;;;6286191;22;20015;-89
2022/04/10 04:51:36;;;;;;;0.45;0.40;;;;;;;;;;6260104;22;20007;-88
2022/04/10 04:54:09;;;;;;;0.55;0.50;;;;;;;;;;6259699;22;20041;-89
2022/04/10 04:56:35;;;;;;;0.95;0.80;;;;;;;;;;6235700;22;20029;-89
2022/04/10 04:59:01;;;;;;;2.05;0.75;;;;;;;;;;6259612;22;20026;-89
2022/04/10 05:01:27;;;;;;;0.30;0.30;;;;;;;;;;6260596;22;20011;-89
2022/04/10 05:03:53;;;;;;;0.40;0.40;;;;;;;;;;6260218;22;20033;-87
2022/04/10 05:06:20;;;;;;;0.73;0.52;;;;;;;;;;6259781;22;20105;-88
2022/04/10 05:08:49;;;;;;;0.75;0.60;;;;;;;;;;6285876;22;20559;-89
2022/04/10 05:11:15;;;;;;;0.68;0.43;;;;;;;;;;6258792;22;20007;-88
2022/04/10 05:13:41;;;;;;;0.50;0.50;;;;;;;;;;6234069;22;20066;-87
2022/04/10 05:16:07;;;;;;;0.30;0.30;;;;;;;;;;6259298;22;20021;-87
2022/04/10 05:18:33;;;;;;;0.40;0.40;;;;;;;;;;6259530;22;20090;-89
2022/04/10 05:20:59;;;;;;;0.50;0.50;;;;;;;;;;6260092;22;20019;-88
2022/04/10 05:23:25;;;;;;;0.60;0.60;;;;;;;;;;6259866;22;20022;-88
2022/04/10 05:25:52;;;;;;;14.90;5.38;;;;;;;;;;6259252;22;20518;-87
2022/04/10 05:28:18;;;;;;;0.40;0.40;;;;;;;;;;6259899;22;20073;-87
2022/04/10 05:30:44;;;;;;;0.93;0.65;;;;;;;;;;6260438;22;20011;-88
2022/04/10 05:33:10;;;;;;;0.40;0.40;;;;;;;;;;6259452;22;20315;-88
2022/04/10 05:35:36;;;;;;;0.57;0.52;;;;;;;;;;6259333;22;20015;-89
2022/04/10 05:38:04;;;;;;;1.20;0.50;;;;;;;;;;6259501;22;20049;-88
2022/04/10 05:40:30;;;;;;;0.85;0.65;;;;;;;;;;6259609;22;20344;-89
2022/04/10 05:42:56;;;;;;;0.60;0.60;;;;;;;;;;6260016;22;20396;-89
2022/04/10 05:45:22;;;;;;;0.40;0.40;;;;;;;;;;6259548;22;20015;-88
2022/04/10 05:47:49;;;;;;;0.40;0.40;;;;;;;;;;6259292;22;20080;-88
2022/04/10 05:50:15;;;;;;;0.47;0.32;;;;;;;;;;6259503;22;20069;-89
2022/04/10 05:52:43;;;;;;;0.40;0.40;;;;;;;;;;6259428;22;20012;-88
2022/04/10 05:55:10;;;;;;;0.50;0.50;;;;;;;;;;6258903;22;20015;-89
2022/04/10 05:57:36;;;;;;;0.43;0.43;;;;;;;;;;6259388;22;20040;-88
2022/04/10 06:00:05;;;;;;;0.32;0.32;;;;;;;;;;6258884;22;20015;-87
2022/04/10 06:02:31;;;;;;;0.57;0.47;;;;;;;;;;6259420;22;20019;-89
2022/04/10 06:04:57;;;;;;;0.40;0.40;;;;;;;;;;6260052;22;20064;-89
2022/04/10 06:07:24;;;;;;;1.30;0.50;;;;;;;;;;6258751;22;20098;-87
2022/04/10 06:09:50;;;;;;;12.60;0.65;;;;;;;;;;6258302;22;20341;-87
2022/04/10 06:12:17;;;;;;;0.55;0.50;;;;;;;;;;6259297;22;20007;-88
2022/04/10 06:14:46;;;;;;;0.40;0.40;;;;;;;;;;6259212;22;20011;-89
2022/04/10 06:17:12;;;;;;;1.55;0.60;;;;;;;;;;6258734;22;20056;-89
2022/04/10 06:19:38;;;;;;;0.40;0.40;;;;;;;;;;6258596;22;20015;-89
2022/04/10 06:22:05;;;;;;;0.40;0.40;;;;;;;;;;6258500;22;20019;-88
2022/04/10 06:24:34;;;;;;;0.60;0.60;;;;;;;;;;6258342;22;20068;-89
2022/04/10 06:27:00;;;;;;;0.55;0.55;;;;;;;;;;6257828;22;20047;-88
2022/04/10 06:29:26;;;;;;;0.40;0.40;;;;;;;;;;6284197;22;20011;-89
2022/04/10 06:31:54;;;;;;;0.40;0.40;;;;;;;;;;6257700;22;20018;-89
2022/04/10 06:34:24;;;;;;;0.50;0.50;;;;;;;;;;6284184;22;20014;-88
2022/04/10 06:36:50;;;;;;;0.50;0.50;;;;;;;;;;6259333;22;20022;-88
2022/04/10 06:39:16;;;;;;;0.55;0.52;;;;;;;;;;6261318;22;20015;-88
2022/04/10 06:41:43;;;;;;;0.50;0.50;;;;;;;;;;6260008;22;20019;-88
2022/04/10 06:44:09;;;;;;;0.40;0.40;;;;;;;;;;6259630;22;20023;-87
2022/04/10 06:46:35;;;;;;;0.50;0.50;;;;;;;;;;6259141;22;20018;-89
2022/04/10 06:49:01;;;;;;;1.90;0.80;;;;;;;;;;6259339;22;20050;-89
2022/04/10 06:51:28;;;;;;;1.10;0.65;;;;;;;;;;6259852;22;20023;-87
2022/04/10 06:53:54;;;;;;;2.58;1.45;;;;;;;;;;6260071;22;20015;-88
2022/04/10 06:56:20;;;;;;;5.80;0.88;;;;;;;;;;6260284;22;20011;-88
2022/04/10 06:58:46;;;;;;;0.50;0.50;;;;;;;;;;6260852;22;20011;-88
2022/04/10 07:01:12;;;;;;;1.35;0.68;;;;;;;;;;6260269;22;20112;-88
2022/04/10 07:03:38;;;;;;;1.60;1.08;;;;;;;;;;6259752;22;20015;-88
2022/04/10 07:06:05;;;;;;;0.60;0.60;;;;;;;;;;6259479;22;20455;-87
2022/04/10 07:08:32;;;;;;;0.47;0.47;;;;;;;;;;6259888;22;20475;-88
2022/04/10 07:11:00;;;;;;;2.92;0.75;;;;;;;;;;6284680;22;20016;-88
2022/04/10 07:13:26;;;;;;;0.47;0.47;;;;;;;;;;6259818;22;20011;-88
2022/04/10 07:15:52;;;;;;;1.02;0.70;;;;;;;;;;6260171;22;20022;-88
2022/04/10 07:18:18;;;;;;;0.57;0.57;;;;;;;;;;6260419;22;20019;-89
2022/04/10 07:20:45;;;;;;;8.43;0.80;;;;;;;;;;6285731;22;20022;-89
2022/04/10 07:25:56;;;;;;;0.45;0.43;;;;;;;;;;6284430;22;20345;-87
2022/04/10 07:28:22;;;;;;;0.88;0.63;;;;;;;;;;6259316;22;20015;-89
2022/04/10 07:30:48;;;;;;;2.20;0.82;;;;;;;;;;6258962;22;20535;-89
2022/04/10 07:33:15;;;;;;;1.88;0.82;;;;;;;;;;6259118;22;20011;-88
2022/04/10 07:35:44;;;;;;;1.23;0.70;;;;;;;;;;6258625;22;20395;-88
2022/04/10 07:38:11;;;;;;;1.52;0.60;;;;;;;;;;6258479;22;20015;-88
2022/04/10 07:40:40;;;;;;;0.47;0.43;;;;;;;;;;6258704;22;20022;-89
2022/04/10 07:43:06;;;;;;;1.42;0.80;;;;;;;;;;6234285;22;20007;-88
2022/04/10 07:48:17;;;;;;;2.13;1.10;;;;;;;;;;6283497;22;20457;-88
2022/04/10 07:50:44;;;;;;;24.63;2.05;;;;;;;;;;6233236;22;20022;-88
2022/04/10 07:53:10;;;;;;;1.98;1.42;;;;;;;;;;6259976;22;20011;-89
2022/04/10 07:55:36;;;;;;;0.88;0.35;;;;;;;;;;6260863;22;20080;-90
2022/04/10 07:58:02;;;;;;;3.88;0.93;;;;;;;;;;6261376;22;20015;-89
2022/04/10 08:00:32;;;;;;;7.72;0.90;;;;;;;;;;6259167;22;20047;-88
2022/04/10 08:02:58;;;;;;;1.85;0.93;;;;;;;;;;6258701;22;20452;-88
2022/04/10 08:05:24;;;;;;;1.40;0.70;;;;;;;;;;6284238;22;20348;-89
2022/04/10 08:07:50;;;;;;;1.20;0.80;;;;;;;;;;6258396;22;20019;-89
2022/04/10 08:10:17;;;;;;;4.15;1.00;;;;;;;;;;6258356;22;20448;-89
2022/04/10 08:12:44;;;;;;;8.40;0.82;;;;;;;;;;6258476;22;20015;-88
2022/04/10 08:15:11;;;;;;;3.58;0.85;;;;;;;;;;6258704;22;20017;-88
2022/04/10 08:17:38;;;;;;;0.98;0.45;;;;;;;;;;6256128;22;20019;-88
2022/04/10 08:20:05;;;;;;;2.05;0.65;;;;;;;;;;6259343;22;20021;-88
2022/04/10 08:22:32;;;;;;;1.45;0.77;;;;;;;;;;6256995;22;20068;-89
2022/04/10 08:25:02;;;;;;;2.75;0.95;;;;;;;;;;6259569;22;20026;-89
2022/04/10 08:27:29;;;;;;;2.83;1.05;;;;;;;;;;6284942;22;20011;-89
2022/04/10 08:29:55;;;;;;;1.55;0.80;;;;;;;;;;6259384;22;20019;-90
2022/04/10 08:32:21;;;;;;;5.70;1.70;;;;;;;;;;6259655;22;20008;-89
2022/04/10 08:34:47;;;;;;;6.28;1.10;;;;;;;;;;6261244;22;20015;-89
2022/04/10 08:37:13;;;;;;;0.82;0.70;;;;;;;;;;6259536;22;20015;-88
2022/04/10 08:39:39;;;;;;;1.88;0.95;;;;;;;;;;6258591;22;20413;-88
2022/04/10 08:42:06;;;;;;;4.55;1.02;;;;;;;;;;6258970;22;20072;-89
2022/04/10 08:44:33;;;;;;;0.90;0.55;;;;;;;;;;6259826;22;20015;-89
2022/04/10 08:47:01;;;;;;;11.40;0.65;;;;;;;;;;6258980;22;20011;-88
2022/04/10 08:49:32;;;;;;;3.72;0.70;;;;;;;;;;6259197;22;20027;-88
2022/04/10 08:51:59;;;;;;;2.08;0.80;;;;;;;;;;6259424;22;20345;-87
2022/04/10 08:54:26;;;;;;;0.98;0.77;;;;;;;;;;6285110;22;20027;-88
2022/04/10 08:56:53;;;;;;;4.38;1.30;;;;;;;;;;6259869;22;20023;-89
2022/04/10 08:59:19;;;;;;;2.90;1.00;;;;;;;;;;6260005;22;20015;-89
2022/04/10 09:01:46;;;;;;;8.68;2.83;;;;;;;;;;6261081;22;20023;-89
2022/04/10 09:04:13;;;;;;;0.60;0.50;;;;;;;;;;6260856;22;20026;-88
2022/04/10 09:06:43;;;;;;;1.25;0.73;;;;;;;;;;6234473;22;20096;-89
2022/04/10 09:09:18;;;;;;;11.18;1.35;;;;;;;;;;6260021;22;20019;-88
2022/04/10 09:11:44;;;;;;;3.35;0.70;;;;;;;;;;6259700;22;20067;-87
2022/04/10 09:14:11;;;;;;;3.20;1.35;;;;;;;;;;6259557;22;20011;-87
2022/04/10 09:16:37;;;;;;;7.10;1.15;;;;;;;;;;6258860;22;20353;-88
2022/04/10 09:19:10;;;;;;;1.63;0.88;;;;;;;;;;6259055;22;20071;-88
2022/04/10 09:21:38;;;;;;;7.95;1.33;;;;;;;;;;6258660;22;20119;-89
2022/04/10 09:24:08;;;;;;;9.13;1.30;;;;;;;;;;6260056;22;20045;-88
2022/04/10 09:26:48;;;;;;;2.53;0.90;;;;;;;;;;6259080;22;20011;-88
2022/04/10 09:29:16;;;;;;;8.00;2.53;;;;;;;;;;6284070;22;20019;-89
2022/04/10 09:31:42;;;;;;;4.45;1.00;;;;;;;;;;6259064;22;20015;-88
2022/04/10 09:34:11;;;;;;;4.15;1.27;;;;;;;;;;6258681;22;20064;-87
2022/04/10 09:36:42;;;;;;;2.88;0.90;;;;;;;;;;6258538;22;20021;-88
2022/04/10 09:39:15;;;;;;;0.65;0.65;;;;;;;;;;6284215;22;20023;-88
2022/04/10 09:41:43;;;;;;;3.35;0.80;;;;;;;;;;6258053;22;20527;-88
2022/04/10 09:44:20;;;;;;;3.80;1.42;;;;;;;;;;6258479;22;20023;-89
2022/04/10 09:46:56;;;;;;;3.30;1.00;;;;;;;;;;6233993;22;20156;-87
2022/04/10 09:49:22;;;;;;;2.03;0.75;;;;;;;;;;6257512;22;20023;-89
2022/04/10 09:52:18;;;;;;;5.00;0.68;;;;;;;;;;6258621;22;20016;-88
2022/04/10 09:54:46;;;;;;;;;;;;;;;;;;6239686;22;20383;-88
2022/04/10 09:57:12;;;;;;;1.60;0.88;;;;;;;;;;6258322;22;19917;-88
2022/04/10 09:59:58;;;;;;;0.60;0.40;;;;;;;;;;6259223;22;20387;-88
2022/04/10 10:02:26;;;;;;;8.00;1.02;;;;;;;;;;6257993;22;20420;-88
2022/04/10 10:04:54;;;;;;;0.30;0.30;;;;;;;;;;6232774;22;20030;-88
2022/04/10 10:07:22;;;;;;;2.88;0.68;;;;;;;;;;6257805;22;20007;-89
2022/04/10 10:09:49;;;;;;;2.55;0.47;;;;;;;;;;6257793;22;20110;-89
2022/04/10 10:12:16;;;;;;;1.98;0.57;;;;;;;;;;6260953;22;20333;-89
2022/04/10 10:14:42;;;;;;;0.30;0.30;;;;;;;;;;6261750;22;20152;-89
2022/04/10 10:17:09;;;;;;;1.23;0.70;;;;;;;;;;6260457;22;20019;-89
2022/04/10 10:19:38;;;;;;;1.13;0.88;;;;;;;;;;6260391;22;20051;-88
2022/04/10 10:22:06;;;;;;;0.20;0.20;;;;;;;;;;6235281;22;20015;-88
2022/04/10 10:24:35;;;;;;;1.48;0.88;;;;;;;;;;6260533;22;20015;-89
2022/04/10 10:27:27;;;;;;;1.27;0.70;;;;;;;;;;6259985;22;20022;-88
2022/04/10 10:29:53;;;;;;;0.55;0.30;;;;;;;;;;6260407;22;20046;-88
2022/04/10 10:32:30;;;;;;;2.08;0.90;;;;;;;;;;6261032;22;20023;-89
2022/04/10 10:34:59;;;;;;;0.20;0.20;;;;;;;;;;6263293;22;20015;-89
2022/04/10 10:37:32;;;;;;;1.27;0.60;;;;;;;;;;6258486;22;20015;-88
2022/04/10 10:39:59;;;;;;;0.45;0.45;;;;;;;;;;6237496;22;20019;-88
2022/04/10 10:42:25;;;;;;;4.88;0.73;;;;;;;;;;6258547;22;20510;-87
2022/04/10 10:44:51;;;;;;;0.82;0.68;;;;;;;;;;6262891;22;20015;-89
2022/04/10 10:47:26;;;;;;;1.60;0.68;;;;;;;;;;6239852;22;20389;-92
2022/04/10 10:49:55;;;;;;;0.50;0.30;;;;;;;;;;6289307;22;20441;-90
2022/04/10 10:55:45;;;;;;;0.30;0.30;;;;;;;;;;6272813;22;20106;-90
2022/04/10 10:58:18;;;;;;;2.53;0.52;;;;;;;;;;6265508;22;20015;-88
2022/04/10 11:00:46;;;;;;;0.30;0.30;;;;;;;;;;6264572;22;20051;-87
2022/04/10 11:03:14;;;;;;;4.35;0.85;;;;;;;;;;6267293;22;20362;-93
2022/04/10 11:05:40;;;;;;;1.30;0.40;;;;;;;;;;6264944;22;20500;-92
2022/04/10 11:08:08;;;;;;;1.90;0.77;;;;;;;;;;6267413;22;20050;-92
2022/04/10 11:10:38;;;;;;;0.40;0.40;;;;;;;;;;6268761;22;20038;-92
2022/04/10 11:13:08;;;;;;;6.07;0.77;;;;;;;;;;6269263;22;20022;-92
2022/04/10 11:15:57;;;;;;;0.70;0.52;;;;;;;;;;6268376;22;20019;-92
2022/04/10 11:18:31;;;;;;;0.55;0.55;;;;;;;;;;6269066;22;20022;-91
2022/04/10 11:20:58;;;;;;;0.98;0.57;;;;;;;;;;6267110;22;20011;-90
2022/04/10 11:23:30;;;;;;;1.63;0.30;;;;;;;;;;6267280;22;20022;-91
2022/04/10 11:26:02;;;;;;;1.05;0.60;;;;;;;;;;6267911;22;20016;-91
2022/04/10 11:28:31;;;;;;;0.32;0.32;;;;;;;;;;6267744;22;20019;-91
2022/04/10 11:30:57;;;;;;;2.70;0.60;;;;;;;;;;6267689;22;20019;-90
2022/04/10 11:33:23;;;;;;;2.08;0.52;;;;;;;;;;6267366;22;20022;-91
2022/04/10 11:35:56;;;;;;;1.55;0.80;;;;;;;;;;6292366;22;20058;-93
2022/04/10 11:38:23;;;;;;;0.40;0.40;;;;;;;;;;6267098;22;20047;-92
2022/04/10 11:40:51;;;;;;;1.45;0.50;;;;;;;;;;6266986;22;20023;-93
2022/04/10 11:43:23;;;;;;;0.90;0.80;;;;;;;;;;6292280;22;20019;-92
2022/04/10 11:45:55;;;;;;;0.40;0.40;;;;;;;;;;6267190;22;20015;-92
2022/04/10 11:48:23;;;;;;;2.28;0.50;;;;;;;;;;6267404;22;20047;-92
2022/04/10 11:50:49;;;;;;;6.75;1.30;;;;;;;;;;6267274;22;20018;-92
2022/04/10 11:53:18;;;;;;;0.40;0.40;;;;;;;;;;6267616;22;20069;-93
2022/04/10 11:55:45;;;;;;;6.43;0.50;;;;;;;;;;6268733;22;20019;-92
2022/04/10 11:58:16;;;;;;;5.05;0.82;;;;;;;;;;6269287;22;20042;-92
2022/04/10 12:00:46;;;;;;;3.38;0.90;;;;;;;;;;6294143;22;20015;-92
2022/04/10 12:03:17;;;;;;;6.13;0.93;;;;;;;;;;6269461;22;20080;-93
2022/04/10 12:05:51;;;;;;;2.10;0.87;;;;;;;;;;6267924;22;20008;-94
2022/04/10 12:08:24;;;;;;;2.05;0.60;;;;;;;;;;6269580;22;20456;-93
2022/04/10 12:10:57;;;;;;;1.77;0.68;;;;;;;;;;6269195;22;20049;-94
2022/04/10 12:13:34;;;;;;;2.67;0.90;;;;;;;;;;6269307;22;20015;-91
2022/04/10 12:16:00;;;;;;;0.77;0.35;;;;;;;;;;6266991;22;20023;-93
2022/04/10 12:18:48;;;;;;;1.25;0.65;;;;;;;;;;6268317;22;20022;-95
2022/04/10 12:21:21;;;;;;;1.45;0.63;;;;;;;;;;6269973;22;20336;-94
2022/04/10 12:24:03;;;;;;;3.08;0.77;;;;;;;;;;6270629;22;20019;-95
2022/04/10 12:26:36;;;;;;;6.10;0.57;;;;;;;;;;6268016;22;20034;-94
2022/04/10 12:29:04;;;;;;;17.65;1.10;;;;;;;;;;6270057;22;20103;-94
2022/04/10 12:31:37;;;;;;;0.20;0.20;;;;;;;;;;6294968;22;20337;-95
2022/04/10 12:34:03;;;;;;;2.35;0.75;;;;;;;;;;6269312;22;20041;-94
2022/04/10 12:36:39;;;;;;;0.63;0.40;;;;;;;;;;6269567;22;20019;-95
2022/04/10 12:39:27;;;;;;;1.70;0.60;;;;;;;;;;6271544;22;20030;-94
2022/04/10 12:42:06;;;;;;;0.65;0.52;;;;;;;;;;6269755;22;20315;-94
2022/04/10 12:44:37;;;;;;;2.38;0.60;;;;;;;;;;6269707;22;20041;-94
2022/04/10 12:47:06;;;;;;;0.80;0.60;;;;;;;;;;6269660;22;20011;-94
2022/04/10 12:49:38;;;;;;;1.42;0.50;;;;;;;;;;6268805;22;20030;-94
2022/04/10 12:52:10;;;;;;;0.80;0.63;;;;;;;;;;6270677;22;20011;-94
2022/04/10 12:54:50;;;;;;;3.83;0.82;;;;;;;;;;6269907;22;20101;-93
2022/04/10 12:57:28;;;;;;;0.90;0.20;;;;;;;;;;6269153;22;20079;-93
2022/04/10 12:59:55;;;;;;;1.58;0.55;;;;;;;;;;6268939;22;20310;-94
2022/04/10 13:02:27;;;;;;;1.13;0.77;;;;;;;;;;6270624;22;20015;-93
2022/04/10 13:05:03;;;;;;;1.08;0.40;;;;;;;;;;6260043;22;20011;-94
2022/04/10 13:07:35;;;;;;;1.60;0.50;;;;;;;;;;6269478;22;20075;-94
2022/04/10 13:10:05;;;;;;;0.35;0.35;;;;;;;;;;6269418;22;20448;-94
2022/04/10 13:12:33;;;;;;;1.38;0.50;;;;;;;;;;6289483;22;20026;-95
2022/04/10 13:15:24;;;;;;;1.63;0.25;;;;;;;;;;6269473;22;20019;-94
2022/04/10 13:18:04;;;;;;;2.67;0.60;;;;;;;;;;6271542;22;20011;-95
2022/04/10 13:20:30;;;;;;;0.20;0.20;;;;;;;;;;6268646;22;20015;-94
2022/04/10 13:22:56;;;;;;;0.28;0.20;;;;;;;;;;6268604;22;20015;-95
2022/04/10 13:25:35;;;;;;;2.75;1.33;;;;;;;;;;6267915;22;20011;-94
2022/04/10 13:28:12;;;;;;;3.55;0.70;;;;;;;;;;6272381;22;20047;-95
2022/04/10 13:30:44;;;;;;;1.73;0.60;;;;;;;;;;6271308;22;20011;-93
2022/04/10 13:33:23;;;;;;;1.45;0.68;;;;;;;;;;6270169;22;20022;-93
2022/04/10 13:35:49;;;;;;;3.40;0.88;;;;;;;;;;6269650;22;20102;-93
2022/04/10 13:38:30;;;;;;;1.77;0.68;;;;;;;;;;6270587;22;20019;-94
2022/04/10 13:41:02;;;;;;;0.40;0.30;;;;;;;;;;6270571;22;20429;-95
2022/04/10 13:43:39;;;;;;;0.20;0.20;;;;;;;;;;6271611;22;20035;-95
2022/04/10 13:46:08;;;;;;;1.08;0.63;;;;;;;;;;6270394;22;20071;-94
2022/04/10 13:48:37;;;;;;;10.25;0.75;;;;;;;;;;6270706;22;20015;-94
2022/04/10 13:51:03;;;;;;;0.85;0.50;;;;;;;;;;6272046;22;20022;-94
2022/04/10 13:53:35;;;;;;;0.75;0.60;;;;;;;;;;6271565;22;20011;-94
2022/04/10 13:56:09;;;;;;;0.40;0.40;;;;;;;;;;6270909;22;20102;-93
2022/04/10 13:58:38;;;;;;;0.30;0.30;;;;;;;;;;6271162;22;20043;-94
2022/04/10 14:01:08;;;;;;;2.20;0.50;;;;;;;;;;6296632;22;20019;-93
2022/04/10 14:03:38;;;;;;;4.47;0.45;;;;;;;;;;6271257;22;20019;-94
2022/04/10 14:06:22;;;;;;;0.63;0.40;;;;;;;;;;6268486;22;20097;-94
2022/04/10 14:08:51;;;;;;;2.85;1.10;;;;;;;;;;6270663;22;20011;-94
2022/04/10 14:11:28;;;;;;;18.30;0.55;;;;;;;;;;6271602;22;20015;-93
2022/04/10 14:13:54;;;;;;;0.40;0.35;;;;;;;;;;6270173;22;20015;-93
2022/04/10 14:16:21;;;;;;;2.30;0.68;;;;;;;;;;6267363;22;20019;-89
2022/04/10 14:18:47;;;;;;;1.30;0.52;;;;;;;;;;6264361;22;20015;-92
2022/04/10 14:21:14;;;;;;;1.98;0.80;;;;;;;;;;6269639;22;20121;-93
2022/04/10 14:23:43;;;;;;;1.00;0.63;;;;;;;;;;6270092;22;20047;-92
2022/04/10 14:26:21;;;;;;;5.22;1.65;;;;;;;;;;6269938;22;20011;-92
2022/04/10 14:28:48;;;;;;;1.65;0.60;;;;;;;;;;6269170;22;20021;-91
2022/04/10 14:31:14;;;;;;;0.65;0.52;;;;;;;;;;6269454;22;20043;-92
2022/04/10 14:33:43;;;;;;;2.90;0.63;;;;;;;;;;6271111;22;20015;-91
2022/04/10 14:36:14;;;;;;;1.17;0.55;;;;;;;;;;6270372;22;20019;-95
2022/04/10 14:38:46;;;;;;;2.63;0.50;;;;;;;;;;6271332;22;20023;-92
2022/04/10 14:41:13;;;;;;;0.73;0.38;;;;;;;;;;6296881;22;20021;-91
2022/04/10 14:43:41;;;;;;;0.30;0.30;;;;;;;;;;6270503;22;20027;-93
2022/04/10 14:46:07;;;;;;;1.38;0.30;;;;;;;;;;6269503;22;20026;-92
2022/04/10 14:48:33;;;;;;;0.50;0.30;;;;;;;;;;6269840;22;20015;-93
2022/04/10 14:51:00;;;;;;;3.80;0.60;;;;;;;;;;6270135;22;20011;-92
2022/04/10 14:53:31;;;;;;;0.20;0.20;;;;;;;;;;6270717;22;20011;-93
2022/04/10 14:56:04;;;;;;;0.28;0.20;;;;;;;;;;6296021;22;20023;-91
2022/04/10 14:58:30;;;;;;;0.40;0.25;;;;;;;;;;6268281;22;20053;-91